Time;durP1;ratioP1;P1;durP2;ratioP2;P2;SDS_P1;SDS_P2;PMS_P1;PMS_P2;Temp;Humidity;BMP_temperature;BMP_pressure;BME280_temperature;BME280_humidity;BME280_pressure;Samples;Min_cycle;Max_cycle;Signal;HPM_P1;HPM_P2
2022/03/20 00:01:06;;;;;;;;;19.00;19.00;;;;;21.94;43.89;103831.73;110943;1255;18680;-47
2022/03/20 00:03:33;;;;;;;;;23.00;21.00;;;;;21.94;43.82;103832.29;110948;1255;22032;-48
2022/03/20 00:06:00;;;;;;;;;21.33;19.33;;;;;21.94;43.92;103830.29;110937;1255;19446;-49
2022/03/20 00:08:28;;;;;;;;;18.67;17.67;;;;;21.95;43.69;103833.33;110863;1255;22361;-51
2022/03/20 00:10:55;;;;;;;;;21.00;19.33;;;;;21.93;43.83;103832.95;110868;1255;18958;-49
2022/03/20 00:13:22;;;;;;;;;22.00;18.00;;;;;21.92;43.83;103831.39;110936;1255;20970;-49
2022/03/20 00:15:50;;;;;;;;;18.50;15.00;;;;;21.92;43.68;103829.52;110948;1255;20979;-47
2022/03/20 00:18:20;;;;;;;;;21.50;19.50;;;;;21.92;43.79;103829.58;110913;1255;18903;-48
2022/03/20 00:20:47;;;;;;;;;18.33;18.00;;;;;21.91;43.72;103829.62;110904;1255;19577;-48
2022/03/20 00:23:16;;;;;;;;;25.00;21.67;;;;;21.91;43.69;103828.38;110847;1255;22739;-48
2022/03/20 00:25:44;;;;;;;;;24.00;24.00;;;;;21.91;43.69;103830.32;110835;1255;18881;-50
2022/03/20 00:28:12;;;;;;;;;22.33;20.33;;;;;21.91;43.51;103829.27;110943;1255;19457;-49
2022/03/20 00:30:39;;;;;;;;;18.67;18.33;;;;;21.91;43.41;103833.79;110994;1255;18772;-50
2022/03/20 00:33:06;;;;;;;;;21.00;18.33;;;;;21.90;43.50;103831.54;110912;1255;18723;-47
2022/03/20 00:35:33;;;;;;;;;18.00;17.50;;;;;21.89;43.53;103829.95;110917;1255;19460;-49
2022/03/20 00:38:01;;;;;;;;;19.00;18.00;;;;;21.88;43.50;103831.27;110957;1255;21503;-49
2022/03/20 00:40:28;;;;;;;;;22.33;18.00;;;;;21.89;43.55;103828.89;110912;1255;19011;-49
2022/03/20 00:42:55;;;;;;;;;21.00;18.50;;;;;21.86;43.46;103829.37;110904;1255;19610;-49
2022/03/20 00:45:22;;;;;;;;;21.00;19.00;;;;;21.86;43.54;103825.40;110982;1255;20142;-48
2022/03/20 00:47:50;;;;;;;;;19.00;18.00;;;;;21.86;43.31;103826.86;110931;1255;18838;-49
2022/03/20 00:50:17;;;;;;;;;22.00;20.50;;;;;21.86;43.33;103828.85;110874;1255;22203;-49
2022/03/20 00:52:44;;;;;;;;;17.67;15.00;;;;;21.86;43.27;103827.03;110922;1255;18922;-47
2022/03/20 00:55:11;;;;;;;;;21.67;19.00;;;;;21.86;43.21;103827.04;110915;1255;18906;-50
2022/03/20 00:57:39;;;;;;;;;22.33;18.67;;;;;21.86;43.08;103826.69;110970;1255;19583;-49
2022/03/20 01:00:06;;;;;;;;;21.00;18.00;;;;;21.86;43.05;103828.33;110914;1256;18660;-49
2022/03/20 01:02:33;;;;;;;;;20.67;20.67;;;;;21.85;43.07;103823.83;110938;1256;20451;-50
2022/03/20 01:05:00;;;;;;;;;23.67;18.00;;;;;21.84;43.05;103821.15;110934;1255;22249;-50
2022/03/20 01:07:28;;;;;;;;;18.00;17.00;;;;;21.84;43.01;103820.43;110928;1255;19076;-48
2022/03/20 01:09:55;;;;;;;;;19.00;18.00;;;;;21.84;42.94;103818.41;110914;1255;18756;-48
2022/03/20 01:12:23;;;;;;;;;19.33;17.33;;;;;21.85;42.98;103818.54;110953;1255;19493;-51
2022/03/20 01:14:50;;;;;;;;;20.50;18.00;;;;;21.85;42.94;103815.86;110912;1255;20133;-49
2022/03/20 01:17:17;;;;;;;;;18.67;18.00;;;;;21.84;42.78;103817.67;110907;1255;18968;-48
2022/03/20 01:19:44;;;;;;;;;20.00;18.00;;;;;21.85;42.73;103817.30;110400;1255;487270;-47
2022/03/20 01:22:12;;;;;;;;;17.50;17.50;;;;;21.84;42.78;103816.77;110902;1255;18830;-47
2022/03/20 01:24:39;;;;;;;;;19.50;17.00;;;;;21.84;42.69;103817.88;110868;1255;20324;-48
2022/03/20 01:27:07;;;;;;;;;20.00;17.00;;;;;21.84;42.74;103812.23;110924;1255;20340;-50
2022/03/20 01:29:35;;;;;;;;;20.33;18.67;;;;;21.85;42.88;103810.00;110892;1255;18793;-50
2022/03/20 01:32:02;;;;;;;;;22.00;19.50;;;;;21.84;42.67;103812.04;110918;1255;19082;-52
2022/03/20 01:34:29;;;;;;;;;21.00;18.00;;;;;21.84;42.80;103810.79;110951;1255;19639;-50
2022/03/20 01:36:57;;;;;;;;;18.00;18.00;;;;;21.84;42.66;103804.79;110929;1255;18796;-51
2022/03/20 01:39:24;;;;;;;;;17.50;17.00;;;;;21.83;42.68;103803.73;110797;1258;18805;-51
2022/03/20 01:41:51;;;;;;;;;21.67;18.67;;;;;21.83;42.76;103797.08;110835;1255;19468;-51
2022/03/20 01:44:18;;;;;;;;;18.33;18.00;;;;;21.82;42.74;103795.45;110772;1255;31937;-51
2022/03/20 01:46:46;;;;;;;;;21.67;18.67;;;;;21.83;42.56;103792.67;110816;1255;18722;-52
2022/03/20 01:49:14;;;;;;;;;21.00;17.00;;;;;21.83;42.67;103796.31;110899;1255;19493;-49
2022/03/20 01:54:26;;;;;;;;;19.00;18.00;;;;;21.83;42.50;103801.60;110943;1255;19202;-50
2022/03/20 01:56:53;;;;;;;;;21.00;18.00;;;;;21.83;42.41;103800.48;110907;1255;19471;-50
2022/03/20 01:59:20;;;;;;;;;22.00;19.00;;;;;21.83;42.38;103795.77;110914;1255;22138;-50
2022/03/20 02:01:48;;;;;;;;;21.00;18.50;;;;;21.81;42.43;103794.23;110837;1255;19394;-51
2022/03/20 02:04:15;;;;;;;;;18.00;18.00;;;;;21.82;42.35;103797.84;110829;1255;19520;-49
2022/03/20 02:06:43;;;;;;;;;21.00;20.33;;;;;21.81;42.31;103788.99;110778;1255;18744;-49
2022/03/20 02:09:10;;;;;;;;;21.00;18.67;;;;;21.81;42.38;103793.92;110935;1255;18960;-50
2022/03/20 02:11:37;;;;;;;;;24.67;21.33;;;;;21.81;42.40;103788.41;110892;1255;19903;-51
2022/03/20 02:14:04;;;;;;;;;21.67;18.67;;;;;21.81;42.17;103790.29;110928;1255;26815;-52
2022/03/20 02:16:31;;;;;;;;;21.00;18.00;;;;;21.81;42.08;103784.98;110898;1255;21263;-50
2022/03/20 02:18:59;;;;;;;;;21.00;18.33;;;;;21.81;42.27;103788.63;110953;1255;19601;-51
2022/03/20 02:21:26;;;;;;;;;21.67;17.67;;;;;21.80;42.36;103791.93;110944;1255;22252;-50
2022/03/20 02:23:53;;;;;;;;;19.33;17.33;;;;;21.81;42.09;103794.59;110903;1255;19111;-50
2022/03/20 02:26:20;;;;;;;;;24.67;19.67;;;;;21.81;41.98;103796.41;110898;1255;19458;-53
2022/03/20 02:28:48;;;;;;;;;20.33;19.00;;;;;21.82;42.01;103796.39;110938;1255;18762;-51
2022/03/20 02:31:15;;;;;;;;;21.33;18.33;;;;;21.81;42.03;103793.37;110920;1256;18912;-51
2022/03/20 02:33:42;;;;;;;;;22.67;21.33;;;;;21.82;42.03;103793.48;110929;1255;19500;-51
2022/03/20 02:36:10;;;;;;;;;21.67;19.00;;;;;21.80;42.02;103796.30;110923;1255;18825;-51
2022/03/20 02:38:37;;;;;;;;;21.67;18.67;;;;;21.80;42.01;103797.41;110760;1255;22728;-49
2022/03/20 02:41:14;;;;;;;;;17.00;17.00;;;;;21.80;41.97;103791.64;110923;1255;19631;-50
2022/03/20 02:43:41;;;;;;;;;25.00;22.00;;;;;21.80;42.13;103795.80;110902;1255;18698;-51
2022/03/20 02:46:10;;;;;;;;;20.67;20.00;;;;;21.80;41.86;103790.33;110911;1255;19333;-51
2022/03/20 02:48:37;;;;;;;;;21.00;20.67;;;;;21.80;41.91;103789.42;110947;1255;21357;-51
2022/03/20 02:51:04;;;;;;;;;21.00;18.00;;;;;21.79;42.00;103788.55;110825;1255;18750;-51
2022/03/20 02:53:34;;;;;;;;;18.33;18.33;;;;;21.80;41.84;103793.41;110894;1255;22980;-51
2022/03/20 02:56:02;;;;;;;;;21.00;19.00;;;;;21.79;41.69;103793.69;110867;1255;21097;-51
2022/03/20 02:58:29;;;;;;;;;21.00;17.50;;;;;21.78;41.77;103787.42;110826;1256;18736;-50
2022/03/20 03:00:58;;;;;;;;;21.00;18.67;;;;;21.78;41.69;103786.69;110750;1256;22827;-50
2022/03/20 03:03:25;;;;;;;;;19.00;17.67;;;;;21.78;41.70;103785.19;110855;1255;19516;-50
2022/03/20 03:05:55;;;;;;;;;24.00;21.33;;;;;21.79;41.61;103786.80;110774;1256;18787;-51
2022/03/20 03:11:07;;;;;;;;;18.67;17.67;;;;;21.77;41.69;103789.48;110876;1255;21634;-51
2022/03/20 03:13:35;;;;;;;;;22.67;19.00;;;;;21.77;41.67;103786.56;110850;1255;18679;-50
2022/03/20 03:16:02;;;;;;;;;18.00;17.33;;;;;21.78;41.59;103785.77;110766;1258;22970;-50
2022/03/20 03:18:29;;;;;;;;;23.00;21.50;;;;;21.78;41.53;103785.21;110946;1255;19487;-54
2022/03/20 03:20:57;;;;;;;;;21.00;20.00;;;;;21.77;41.34;103786.55;110856;1255;18876;-50
2022/03/20 03:23:25;;;;;;;;;20.50;19.50;;;;;21.76;41.51;103787.86;110830;1255;20194;-51
2022/03/20 03:25:52;;;;;;;;;18.50;18.00;;;;;21.77;41.55;103789.48;110905;1255;19508;-50
2022/03/20 03:28:20;;;;;;;;;21.00;19.00;;;;;21.77;41.42;103789.48;110888;1255;18780;-51
2022/03/20 03:30:47;;;;;;;;;24.00;21.33;;;;;21.75;41.45;103781.22;110779;1257;22722;-52
2022/03/20 03:33:14;;;;;;;;;21.67;19.00;;;;;21.77;41.43;103779.30;110916;1256;19554;-52
2022/03/20 03:35:51;;;;;;;;;19.00;18.67;;;;;21.76;41.53;103782.60;110866;1255;18825;-51
2022/03/20 03:38:18;;;;;;;;;26.00;21.33;;;;;21.77;41.41;103783.30;110765;1257;18817;-52
2022/03/20 03:40:45;;;;;;;;;25.50;21.00;;;;;21.73;41.41;103777.55;110884;1255;20104;-50
2022/03/20 03:43:12;;;;;;;;;24.00;20.67;;;;;21.77;41.52;103778.94;110738;1258;22811;-50
2022/03/20 03:45:40;;;;;;;;;23.67;21.00;;;;;21.77;41.27;103782.38;110908;1255;18970;-50
2022/03/20 03:48:07;;;;;;;;;20.00;20.00;;;;;21.77;41.26;103780.34;110818;1255;19538;-52
2022/03/20 03:50:34;;;;;;;;;20.00;18.00;;;;;21.76;41.11;103783.91;110860;1255;18818;-52
2022/03/20 03:53:03;;;;;;;;;21.67;20.00;;;;;21.75;41.20;103787.23;110872;1255;22774;-52
2022/03/20 03:55:31;;;;;;;;;21.00;18.00;;;;;21.75;41.24;103789.08;110815;1255;19661;-51
2022/03/20 03:57:58;;;;;;;;;20.00;20.00;;;;;21.75;41.13;103791.09;110772;1257;18748;-46
2022/03/20 04:00:26;;;;;;;;;23.00;21.00;;;;;21.75;40.98;103788.71;110818;1258;18923;-51
2022/03/20 04:02:53;;;;;;;;;19.00;18.67;;;;;21.75;41.10;103790.88;110786;1257;19607;-49
2022/03/20 04:05:20;;;;;;;;;19.00;18.00;;;;;21.74;41.27;103792.41;110742;1257;18679;-49
2022/03/20 04:07:48;;;;;;;;;21.50;20.00;;;;;21.74;41.07;103795.66;110735;1258;21071;-49
2022/03/20 04:10:15;;;;;;;;;22.00;20.67;;;;;21.74;41.09;103790.75;110788;1258;20297;-49
2022/03/20 04:12:43;;;;;;;;;24.00;21.33;;;;;21.73;41.02;103795.77;110798;1257;18981;-51
2022/03/20 04:15:10;;;;;;;;;28.00;19.33;;;;;21.73;41.08;103797.20;110727;1258;19975;-50
2022/03/20 04:17:38;;;;;;;;;23.33;22.00;;;;;21.72;41.15;103797.80;110778;1257;19640;-50
2022/03/20 04:20:06;;;;;;;;;28.00;20.67;;;;;21.73;41.02;103799.75;110728;1257;18901;-50
2022/03/20 04:22:33;;;;;;;;;24.00;20.50;;;;;21.73;41.00;103798.71;110781;1257;23228;-50
2022/03/20 04:25:00;;;;;;;;;21.00;21.00;;;;;21.72;41.00;103798.78;110860;1255;19783;-50
2022/03/20 04:27:28;;;;;;;;;22.00;21.00;;;;;21.71;40.84;103800.09;110899;1255;18854;-51
2022/03/20 04:29:55;;;;;;;;;26.00;22.00;;;;;21.72;40.96;103798.79;110891;1255;18891;-49
2022/03/20 04:32:23;;;;;;;;;21.00;20.00;;;;;21.72;40.82;103802.21;110830;1255;19665;-49
2022/03/20 04:34:51;;;;;;;;;25.00;23.00;;;;;21.72;40.75;103799.86;110855;1255;20453;-50
2022/03/20 04:37:18;;;;;;;;;22.33;20.67;;;;;21.70;40.84;103801.81;110746;1257;18880;-51
2022/03/20 04:39:46;;;;;;;;;24.00;22.67;;;;;21.70;41.02;103800.02;110938;1255;19477;-51
2022/03/20 04:42:13;;;;;;;;;23.33;20.00;;;;;21.71;40.86;103800.48;110732;1257;18785;-50
2022/03/20 04:44:40;;;;;;;;;20.00;19.33;;;;;21.70;40.84;103798.70;110882;1255;18812;-50
2022/03/20 04:58:28;;;;;;;;;21.00;18.67;;;;;21.71;40.87;103802.65;110886;1256;19647;-51
2022/03/20 05:00:56;;;;;;;;;24.00;21.33;;;;;21.73;40.57;103806.16;110872;1255;22710;-50
2022/03/20 05:03:23;;;;;;;;;20.67;18.67;;;;;21.72;40.50;103803.48;110935;1255;20956;-48
2022/03/20 05:05:51;;;;;;;;;20.33;20.00;;;;;21.73;40.42;103803.43;110800;1255;19982;-50
2022/03/20 05:08:18;;;;;;;;;24.00;22.00;;;;;21.72;40.57;103802.59;110869;1255;21032;-52
2022/03/20 05:13:31;;;;;;;;;22.67;20.67;;;;;21.71;40.58;103811.16;110870;1255;19015;-49
2022/03/20 05:15:58;;;;;;;;;21.00;20.00;;;;;21.70;40.49;103806.34;110879;1255;21067;-49
2022/03/20 05:18:25;;;;;;;;;27.33;24.67;;;;;21.71;40.30;103812.14;110965;1255;20128;-52
2022/03/20 05:20:52;;;;;;;;;20.00;20.00;;;;;21.71;40.27;103814.30;110878;1255;18812;-50
2022/03/20 05:23:20;;;;;;;;;25.00;23.00;;;;;21.70;40.45;103813.98;110861;1255;18899;-51
2022/03/20 05:25:48;;;;;;;;;28.00;24.50;;;;;21.70;40.27;103813.65;110844;1255;20943;-51
2022/03/20 05:28:16;;;;;;;;;22.67;18.67;;;;;21.70;40.33;103815.13;110816;1255;18951;-52
2022/03/20 05:30:44;;;;;;;;;23.00;21.50;;;;;21.70;40.30;103818.19;110910;1255;18777;-51
2022/03/20 05:33:11;;;;;;;;;28.00;25.00;;;;;21.71;40.40;103816.15;110833;1255;19764;-49
2022/03/20 05:35:39;;;;;;;;;24.50;20.50;;;;;21.73;40.27;103818.13;110892;1255;21783;-50
2022/03/20 05:38:06;;;;;;;;;23.00;22.00;;;;;21.75;40.19;103812.14;110893;1255;18990;-51
2022/03/20 05:40:33;;;;;;;;;24.67;19.33;;;;;21.79;40.13;103814.29;110887;1254;19590;-50
2022/03/20 05:43:00;;;;;;;;;25.00;22.00;;;;;21.81;40.16;103822.48;110958;1255;18716;-51
2022/03/20 05:45:27;;;;;;;;;23.00;21.67;;;;;21.83;40.05;103821.81;110911;1255;21368;-49
2022/03/20 05:47:56;;;;;;;;;23.00;23.00;;;;;21.84;39.98;103820.84;110846;1255;19472;-51
2022/03/20 05:50:24;;;;;;;;;24.67;21.00;;;;;21.85;39.95;103825.48;110852;1255;18772;-51
2022/03/20 05:52:52;;;;;;;;;21.67;21.00;;;;;21.88;40.20;103824.36;110755;1257;18811;-51
2022/03/20 05:58:01;;;;;;;;;25.00;22.00;;;;;21.89;40.19;103830.50;110770;1255;19738;-50
2022/03/20 05:58:11;;;;;;;;;29.00;25.00;;;;;22.00;40.67;103829.30;110783;1255;19420;-49
2022/03/20 06:00:41;;;;;;;;;23.33;23.00;;;;;22.16;41.40;103831.46;110840;1255;20380;-51
2022/03/20 06:03:08;;;;;;;;;23.00;21.50;;;;;22.24;41.95;103828.33;110761;1257;19459;-50
2022/03/20 06:05:36;;;;;;;;;24.50;24.50;;;;;22.27;42.41;103833.21;110754;1256;20114;-52
2022/03/20 06:08:04;;;;;;;;;24.67;22.00;;;;;22.26;42.51;103834.40;110828;1255;19316;-51
2022/03/20 06:10:32;;;;;;;;;26.00;25.50;;;;;22.25;42.78;103838.82;110749;1258;19502;-51
2022/03/20 06:12:59;;;;;;;;;29.67;26.00;;;;;22.26;42.56;103837.86;110735;1257;18767;-50
2022/03/20 06:15:26;;;;;;;;;31.00;24.00;;;;;22.25;42.77;103836.84;110924;1255;18980;-49
2022/03/20 06:17:53;;;;;;;;;26.67;25.00;;;;;22.25;42.67;103841.75;110814;1255;19544;-50
2022/03/20 06:20:21;;;;;;;;;25.00;22.00;;;;;22.25;42.58;103842.48;110702;1255;18805;-53
2022/03/20 06:22:49;;;;;;;;;27.67;26.00;;;;;22.26;42.40;103843.09;110826;1256;19112;-52
2022/03/20 06:25:17;;;;;;;;;29.67;26.33;;;;;22.31;42.03;103844.39;110907;1255;20047;-51
2022/03/20 06:27:44;;;;;;;;;26.00;23.67;;;;;22.31;42.11;103848.90;110889;1255;18819;-51
2022/03/20 06:30:11;;;;;;;;;24.33;22.00;;;;;22.29;42.21;103853.81;110870;1255;22027;-50
2022/03/20 06:32:38;;;;;;;;;26.00;24.00;;;;;22.28;42.02;103853.02;110715;1256;19596;-50
2022/03/20 06:35:06;;;;;;;;;28.00;25.67;;;;;22.27;42.07;103851.40;110882;1255;19148;-50
2022/03/20 06:37:35;;;;;;;;;24.67;21.33;;;;;22.29;41.85;103850.54;110887;1255;18829;-49
2022/03/20 06:40:02;;;;;;;;;22.50;21.50;;;;;22.32;41.59;103856.71;110889;1255;21219;-49
2022/03/20 06:42:30;;;;;;;;;26.67;25.67;;;;;22.39;41.49;103861.14;110940;1255;18715;-51
2022/03/20 06:44:58;;;;;;;;;23.33;21.00;;;;;22.46;41.43;103865.90;110745;1258;20509;-53
2022/03/20 06:47:26;;;;;;;;;30.33;24.67;;;;;22.50;41.42;103870.91;110834;1255;19451;-50
2022/03/20 06:49:53;;;;;;;;;27.67;25.67;;;;;22.51;41.33;103865.84;110685;1256;18969;-51
2022/03/20 06:52:20;;;;;;;;;24.67;23.67;;;;;22.55;41.34;103872.84;110759;1258;18994;-52
2022/03/20 06:54:48;;;;;;;;;27.33;23.33;;;;;22.58;41.40;103874.29;110927;1255;19655;-51
2022/03/20 06:57:16;;;;;;;;;27.33;26.67;;;;;22.59;41.41;103872.17;110839;1255;18778;-52
2022/03/20 06:59:43;;;;;;;;;29.50;27.00;;;;;22.62;41.52;103873.05;110899;1255;19092;-51
2022/03/20 07:02:11;;;;;;;;;26.33;25.33;;;;;22.60;41.09;103876.86;110890;1255;19776;-52
2022/03/20 07:04:39;;;;;;;;;32.50;27.00;;;;;22.67;41.23;103881.30;110886;1255;18800;-52
2022/03/20 07:07:07;;;;;;;;;27.00;23.00;;;;;22.72;41.11;103881.14;110911;1255;20291;-50
2022/03/20 07:09:34;;;;;;;;;29.67;27.33;;;;;22.76;41.42;103880.77;110920;1255;19791;-50
2022/03/20 07:12:01;;;;;;;;;28.00;23.67;;;;;22.80;41.28;103879.36;110904;1255;18804;-47
2022/03/20 07:14:28;;;;;;;;;31.00;27.00;;;;;22.83;41.64;103880.30;110884;1255;19411;-51
2022/03/20 07:16:55;;;;;;;;;29.50;27.00;;;;;22.86;41.60;103882.98;110893;1255;22446;-51
2022/03/20 07:19:23;;;;;;;;;27.67;26.67;;;;;22.88;41.53;103887.39;110884;1255;18662;-55
2022/03/20 07:21:50;;;;;;;;;26.33;24.67;;;;;22.87;41.54;103884.91;110896;1255;21173;-51
2022/03/20 07:24:17;;;;;;;;;23.00;22.00;;;;;22.90;41.53;103882.66;110823;1255;22815;-49
2022/03/20 07:29:32;;;;;;;;;30.33;25.67;;;;;23.02;41.75;103883.63;110860;1255;19009;-52
2022/03/20 07:32:00;;;;;;;;;39.67;33.00;;;;;22.99;41.58;103884.36;110866;1255;19387;-48
2022/03/20 07:34:27;;;;;;;;;39.00;35.00;;;;;22.75;40.46;103884.48;110811;1256;19652;-51
2022/03/20 07:36:55;;;;;;;;;31.50;30.00;;;;;22.70;40.10;103885.48;110851;1255;19205;-50
2022/03/20 07:39:22;;;;;;;;;32.50;30.00;;;;;22.80;40.19;103886.53;110835;1255;19669;-51
2022/03/20 07:41:49;;;;;;;;;28.00;26.50;;;;;22.87;40.84;103882.55;110856;1255;18803;-49
2022/03/20 07:44:16;;;;;;;;;29.33;27.67;;;;;22.95;41.28;103881.23;110848;1255;20294;-49
2022/03/20 07:46:44;;;;;;;;;32.33;28.00;;;;;23.05;41.34;103883.02;110764;1255;20309;-50
2022/03/20 07:49:11;;;;;;;;;29.00;25.00;;;;;23.11;41.41;103885.67;110754;1255;18849;-51
2022/03/20 07:51:38;;;;;;;;;38.00;34.50;;;;;23.10;41.25;103884.77;110785;1255;19055;-51
2022/03/20 07:54:05;;;;;;;;;38.67;34.33;;;;;22.76;38.68;103882.63;110822;1255;19508;-48
2022/03/20 07:56:35;;;;;;;;;39.00;35.33;;;;;22.55;38.36;103878.68;110803;1255;18680;-52
2022/03/20 07:59:05;;;;;;;;;33.00;31.33;;;;;22.68;37.68;103877.92;110742;1255;19390;-50
2022/03/20 08:01:33;;;;;;;;;30.00;27.00;;;;;22.85;37.93;103871.54;110804;1255;19529;-55
2022/03/20 08:04:00;;;;;;;;;29.33;28.00;;;;;22.97;38.21;103868.45;110843;1255;19001;-51
2022/03/20 08:06:27;;;;;;;;;30.00;27.50;;;;;23.02;38.78;103867.41;110911;1255;22337;-52
2022/03/20 08:08:59;;;;;;;;;24.33;23.33;;;;;23.07;39.11;103874.29;110876;1255;19980;-51
2022/03/20 08:11:26;;;;;;;;;29.50;28.50;;;;;23.10;39.30;103872.80;110833;1255;20308;-48
2022/03/20 08:13:54;;;;;;;;;31.00;27.67;;;;;23.10;39.47;103874.44;110858;1255;18764;-55
2022/03/20 08:16:22;;;;;;;;;30.00;27.50;;;;;23.13;39.68;103869.76;110853;1255;20127;-47
2022/03/20 08:18:49;;;;;;;;;28.00;27.33;;;;;23.17;39.64;103876.06;110958;1255;22939;-52
2022/03/20 08:21:16;;;;;;;;;30.00;25.00;;;;;23.18;39.38;103873.06;110909;1255;22130;-51
2022/03/20 08:23:44;;;;;;;;;28.00;27.00;;;;;23.19;39.41;103875.34;110903;1255;19486;-52
2022/03/20 08:26:11;;;;;;;;;27.00;24.00;;;;;23.17;39.38;103875.48;110836;1255;20534;-51
2022/03/20 08:28:38;;;;;;;;;31.67;27.67;;;;;23.15;39.46;103877.53;110878;1255;18909;-50
2022/03/20 08:31:06;;;;;;;;;34.67;34.00;;;;;22.87;38.20;103875.64;110941;1255;20932;-51
2022/03/20 08:33:34;;;;;;;;;35.00;32.33;;;;;22.58;36.39;103876.80;110803;1255;18672;-51
2022/03/20 08:36:01;;;;;;;;;38.00;33.67;;;;;22.68;35.80;103875.02;110882;1255;18810;-52
2022/03/20 08:38:28;;;;;;;;;41.33;38.33;;;;;22.76;34.66;103878.26;110886;1255;19527;-51
2022/03/20 08:40:55;;;;;;;;;53.50;45.50;;;;;22.53;30.29;103877.02;110768;1255;20933;-50
2022/03/20 08:43:23;;;;;;;;;55.67;45.00;;;;;22.23;26.84;103879.06;110668;1255;19047;-48
2022/03/20 08:45:50;;;;;;;;;43.50;40.50;;;;;22.04;27.62;103874.92;110801;1255;19427;-50
2022/03/20 08:48:18;;;;;;;;;47.33;41.00;;;;;22.15;29.80;103872.70;110757;1255;20592;-54
2022/03/20 08:50:48;;;;;;;;;42.00;38.33;;;;;22.41;30.26;103872.08;110711;1255;18787;-48
2022/03/20 08:53:17;;;;;;;;;40.00;36.00;;;;;22.58;31.05;103871.75;110705;1255;21959;-52
2022/03/20 08:55:45;;;;;;;;;117.50;93.00;;;;;22.67;31.65;103866.68;110789;1255;19060;-49
2022/03/20 08:58:12;;;;;;;;;162.75;121.75;;;;;22.75;32.24;103858.46;110869;1255;18936;-50
2022/03/20 09:00:39;;;;;;;;;156.75;121.25;;;;;22.75;32.61;103856.65;110925;1255;19680;-50
2022/03/20 09:03:06;;;;;;;;;175.00;127.25;;;;;22.77;33.33;103858.67;110849;1255;19312;-52
2022/03/20 09:05:33;;;;;;;;;191.50;142.00;;;;;22.76;33.79;103853.05;110872;1255;19360;-49
2022/03/20 09:08:01;;;;;;;;;155.00;123.75;;;;;22.76;34.30;103846.84;110865;1255;20079;-49
2022/03/20 09:10:28;;;;;;;;;195.25;150.00;;;;;22.82;34.47;103845.33;110830;1255;20331;-51
2022/03/20 09:12:58;;;;;;;;;183.75;134.75;;;;;22.84;34.83;103843.02;110881;1255;18829;-53
2022/03/20 09:15:25;;;;;;;;;131.50;102.25;;;;;22.86;35.02;103844.09;110874;1255;19539;-51
2022/03/20 09:20:37;;;;;;;;;109.00;90.00;;;;;22.87;35.35;103842.39;110843;1255;19121;-50
2022/03/20 09:23:04;;;;;;;;;107.67;83.33;;;;;22.87;35.51;103847.52;110861;1255;19514;-51
2022/03/20 09:25:32;;;;;;;;;107.00;83.00;;;;;22.94;35.95;103846.28;110897;1255;19354;-52
2022/03/20 09:27:59;;;;;;;;;103.33;81.00;;;;;23.02;35.96;103848.94;110900;1255;18793;-51
2022/03/20 09:30:26;;;;;;;;;106.67;78.00;;;;;23.03;35.93;103846.67;110865;1255;19647;-54
2022/03/20 09:32:53;;;;;;;;;98.67;71.33;;;;;22.97;35.88;103850.05;110806;1255;19205;-49
2022/03/20 09:35:21;;;;;;;;;94.50;71.00;;;;;22.92;35.94;103843.48;110913;1255;18868;-50
2022/03/20 09:37:48;;;;;;;;;94.33;68.00;;;;;22.90;36.06;103838.54;110862;1255;19852;-52
2022/03/20 09:40:15;;;;;;;;;84.00;62.00;;;;;22.87;36.10;103840.19;110852;1255;18804;-50
2022/03/20 09:42:43;;;;;;;;;90.67;64.67;;;;;22.87;36.03;103844.44;110935;1255;20894;-47
2022/03/20 09:45:10;;;;;;;;;84.33;63.33;;;;;22.87;36.01;103837.88;110887;1255;19486;-48
2022/03/20 09:47:37;;;;;;;;;82.00;59.00;;;;;22.85;36.08;103837.42;110910;1255;18852;-48
2022/03/20 09:50:04;;;;;;;;;85.50;62.00;;;;;22.86;36.08;103836.46;110868;1255;20422;-49
2022/03/20 09:52:32;;;;;;;;;78.00;59.50;;;;;22.88;36.29;103838.15;110929;1255;22344;-49
2022/03/20 09:54:59;;;;;;;;;74.00;58.67;;;;;22.89;36.13;103836.80;110903;1255;19238;-51
2022/03/20 09:57:27;;;;;;;;;61.33;49.00;;;;;22.88;36.05;103835.95;110838;1254;18774;-50
2022/03/20 09:59:55;;;;;;;;;57.67;45.00;;;;;22.65;29.51;103835.28;110897;1255;19694;-50
2022/03/20 10:02:22;;;;;;;;;55.67;47.00;;;;;22.24;25.36;103838.76;110887;1255;19024;-49
2022/03/20 10:04:49;;;;;;;;;52.33;42.67;;;;;21.78;23.39;103835.29;110925;1255;18827;-48
2022/03/20 10:07:17;;;;;;;;;46.00;41.00;;;;;21.54;22.62;103830.07;110921;1255;19655;-49
2022/03/20 10:09:44;;;;;;;;;47.67;41.33;;;;;21.44;21.90;103831.14;110964;1255;18935;-53
2022/03/20 10:12:12;;;;;;;;;46.67;42.00;;;;;21.29;21.15;103827.17;110833;1255;18829;-50
2022/03/20 10:14:39;;;;;;;;;49.67;42.33;;;;;21.12;20.62;103829.09;110845;1255;19606;-49
2022/03/20 10:17:06;;;;;;;;;46.33;38.67;;;;;21.02;20.08;103831.56;110876;1255;19276;-50
2022/03/20 10:19:34;;;;;;;;;43.00;39.00;;;;;20.90;19.56;103824.25;110902;1255;22944;-50
2022/03/20 10:22:02;;;;;;;;;45.00;40.00;;;;;20.85;19.23;103818.08;110918;1255;19528;-49
2022/03/20 10:24:29;;;;;;;;;42.00;40.00;;;;;20.92;19.05;103820.44;110963;1255;18785;-50
2022/03/20 10:26:56;;;;;;;;;42.33;38.33;;;;;20.94;18.97;103809.23;110885;1255;19403;-50
2022/03/20 10:29:23;;;;;;;;;42.33;39.33;;;;;20.97;18.91;103817.38;110882;1255;19654;-50
2022/03/20 10:31:51;;;;;;;;;41.00;37.67;;;;;20.93;18.95;103812.44;110860;1255;18775;-50
2022/03/20 10:34:18;;;;;;;;;42.67;38.00;;;;;20.97;19.11;103807.73;110925;1255;23080;-49
2022/03/20 10:36:45;;;;;;;;;38.67;32.00;;;;;21.24;20.58;103800.31;110921;1255;19774;-49
2022/03/20 10:39:14;;;;;;;;;36.67;33.00;;;;;21.48;21.49;103799.89;110843;1255;18706;-49
2022/03/20 10:41:41;;;;;;;;;36.67;34.67;;;;;21.56;21.97;103802.95;110724;1255;20513;-48
2022/03/20 10:44:08;;;;;;;;;41.67;34.33;;;;;21.49;22.18;103801.78;110736;1255;19562;-48
2022/03/20 10:46:35;;;;;;;;;34.33;32.67;;;;;21.48;20.84;103798.98;110660;1255;18860;-49
2022/03/20 10:49:03;;;;;;;;;36.00;33.00;;;;;21.36;20.25;103794.17;110770;1255;22793;-48
2022/03/20 10:51:37;;;;;;;;;32.33;30.33;;;;;21.26;20.16;103787.95;110722;1258;22025;-51
2022/03/20 10:54:04;;;;;;;;;30.00;29.00;;;;;21.12;20.22;103797.13;110837;1255;23538;-50
2022/03/20 10:56:32;;;;;;;;;37.67;33.00;;;;;21.26;21.15;103789.61;110708;1257;18835;-49
2022/03/20 10:59:00;;;;;;;;;32.67;29.67;;;;;21.53;22.02;103783.86;110882;1255;22080;-49
2022/03/20 11:01:27;;;;;;;;;27.67;26.67;;;;;21.81;22.98;103781.93;110662;1255;18814;-50
2022/03/20 11:03:55;;;;;;;;;32.33;26.00;;;;;21.78;23.17;103792.85;110826;1255;20267;-52
2022/03/20 11:06:22;;;;;;;;;29.50;29.00;;;;;21.66;22.98;103784.10;110895;1255;19535;-50
2022/03/20 11:08:50;;;;;;;;;28.00;25.00;;;;;21.72;23.55;103776.33;110805;1255;22351;-49
2022/03/20 11:11:17;;;;;;;;;27.50;26.00;;;;;21.81;23.89;103771.70;110854;1255;22216;-50
2022/03/20 11:13:46;;;;;;;;;26.67;25.00;;;;;21.87;24.13;103759.23;110696;1258;19445;-50
2022/03/20 11:16:14;;;;;;;;;28.00;25.00;;;;;21.89;24.62;103755.80;110901;1255;18683;-49
2022/03/20 11:18:41;;;;;;;;;24.00;23.67;;;;;21.92;24.96;103750.34;110693;1257;19112;-49
2022/03/20 11:21:08;;;;;;;;;28.33;24.33;;;;;21.94;25.53;103746.54;110782;1256;19718;-50
2022/03/20 11:23:35;;;;;;;;;24.67;22.33;;;;;21.94;25.60;103744.88;110700;1258;21481;-50
2022/03/20 11:26:03;;;;;;;;;25.67;22.67;;;;;21.95;26.24;103740.67;110867;1255;18961;-47
2022/03/20 11:28:30;;;;;;;;;28.00;24.50;;;;;21.96;26.52;103738.59;110891;1255;19449;-50